Time;durP1;ratioP1;P1;durP2;ratioP2;P2;SDS_P1;SDS_P2;PMS_P1;PMS_P2;Temp;Humidity;BMP_temperature;BMP_pressure;BME280_temperature;BME280_humidity;BME280_pressure;Samples;Min_cycle;Max_cycle;Signal;HPM_P1;HPM_P2
2023/12/09 00:00:49;;;;;;;34.60;9.70;;;9.10;96.10;;;;;;9186460;19;20015;-77
2023/12/09 00:04:00;;;;;;;35.47;10.07;;;9.20;96.30;;;;;;9186292;19;20021;-78
2023/12/09 00:07:09;;;;;;;40.50;10.40;;;8.90;91.10;;;;;;9187388;19;20048;-79
2023/12/09 00:10:18;;;;;;;32.15;9.07;;;8.90;91.30;;;;;;9186210;19;20023;-77
2023/12/09 00:13:23;;;;;;;38.60;10.23;;;8.90;91.30;;;;;;9177977;19;20020;-78
2023/12/09 00:16:31;;;;;;;30.17;10.60;;;8.90;91.30;;;;;;9177768;19;20023;-75
2023/12/09 00:19:39;;;;;;;29.55;9.30;;;8.90;91.30;;;;;;9176620;19;20015;-76
2023/12/09 00:22:47;;;;;;;32.83;8.85;;;8.90;91.40;;;;;;9179572;19;20014;-76
2023/12/09 00:25:52;;;;;;;47.15;11.68;;;8.90;91.40;;;;;;9177392;19;20031;-76
2023/12/09 00:29:00;;;;;;;30.50;9.27;;;9.00;91.70;;;;;;9179845;19;20017;-76
2023/12/09 00:32:06;;;;;;;34.40;9.02;;;9.00;91.40;;;;;;9180175;19;20018;-76
2023/12/09 00:35:17;;;;;;;28.13;8.32;;;9.20;93.70;;;;;;9180424;19;20011;-76
2023/12/09 00:38:23;;;;;;;41.05;9.88;;;9.00;91.30;;;;;;9179362;19;20018;-76
2023/12/09 00:41:30;;;;;;;42.78;10.10;;;9.00;91.30;;;;;;9179861;19;20014;-77
2023/12/09 00:44:36;;;;;;;32.17;10.77;;;8.90;91.30;;;;;;9178125;19;20494;-76
2023/12/09 00:47:43;;;;;;;29.30;8.02;;;8.90;91.30;;;;;;9178743;19;20018;-76
2023/12/09 00:50:51;;;;;;;31.23;8.63;;;9.00;91.30;;;;;;9179279;19;20891;-76
2023/12/09 00:53:59;;;;;;;33.40;9.15;;;8.90;91.30;;;;;;9179454;19;20022;-77
2023/12/09 00:57:05;;;;;;;34.63;8.05;;;9.00;91.30;;;;;;9174940;19;20461;-77
2023/12/09 01:00:15;;;;;;;31.75;7.90;;;9.00;91.30;;;;;;9176855;19;21238;-77
2023/12/09 01:03:21;;;;;;;32.42;7.78;;;8.90;91.60;;;;;;9179406;19;20029;-76
2023/12/09 01:06:31;;;;;;;40.42;9.27;;;9.00;91.30;;;;;;9179286;19;20086;-79
2023/12/09 01:09:40;;;;;;;37.03;8.60;;;9.00;91.30;;;;;;9178996;19;20049;-78
2023/12/09 01:12:48;;;;;;;38.75;8.27;;;9.00;91.30;;;;;;9177336;19;20026;-76
2023/12/09 01:15:54;;;;;;;39.13;8.32;;;9.00;91.30;;;;;;9176590;19;20376;-76
2023/12/09 01:19:01;;;;;;;33.83;7.78;;;9.00;91.30;;;;;;9177212;19;20052;-76
2023/12/09 01:22:09;;;;;;;40.42;7.97;;;8.90;91.30;;;;;;9175961;19;20018;-76
2023/12/09 01:25:17;;;;;;;28.95;7.38;;;9.00;91.30;;;;;;9177306;19;20026;-73
2023/12/09 01:28:23;;;;;;;33.95;7.30;;;9.00;91.30;;;;;;9175382;19;20913;-76
2023/12/09 01:31:31;;;;;;;33.05;9.20;;;8.40;91.20;;;;;;9175638;19;20022;-75
2023/12/09 01:34:39;;;;;;;32.38;8.13;;;9.00;91.30;;;;;;9174752;19;20018;-74
2023/12/09 01:37:50;;;;;;;32.92;8.43;;;9.00;91.30;;;;;;9175611;19;20022;-74
2023/12/09 01:40:56;;;;;;;38.25;9.15;;;9.00;91.30;;;;;;9175520;19;20014;-74
2023/12/09 01:44:03;;;;;;;41.70;8.68;;;9.00;91.30;;;;;;9176954;19;20393;-74
2023/12/09 01:47:09;;;;;;;33.05;8.43;;;9.00;91.30;;;;;;9174673;19;20007;-75
2023/12/09 01:50:17;;;;;;;37.35;9.55;;;9.00;91.30;;;;;;9176058;19;20049;-75
2023/12/09 01:53:26;;;;;;;39.60;9.20;;;9.00;91.30;;;;;;9175741;19;20011;-74
2023/12/09 01:56:52;;;;;;;39.30;9.10;;;9.00;91.30;;;;;;9171792;19;20022;-74
2023/12/09 01:59:57;;;;;;;36.13;8.85;;;9.00;91.20;;;;;;9174557;19;20348;-74
2023/12/09 02:03:05;;;;;;;25.25;8.43;;;9.00;91.20;;;;;;9175257;19;20021;-75
2023/12/09 02:06:11;;;;;;;36.10;9.52;;;9.00;91.20;;;;;;9173160;19;20017;-77
2023/12/09 02:09:21;;;;;;;33.05;9.02;;;9.00;91.20;;;;;;9175044;19;20026;-75
2023/12/09 02:12:36;;;;;;;26.27;8.55;;;9.10;91.30;;;;;;9175373;19;20480;-76
2023/12/09 02:15:52;;;;;;;38.47;8.80;;;9.00;91.30;;;;;;9174667;19;20018;-75
2023/12/09 02:18:59;;;;;;;24.20;8.23;;;9.00;91.30;;;;;;9173385;19;20018;-73
2023/12/09 02:22:09;;;;;;;35.70;7.88;;;9.00;91.30;;;;;;9174157;19;20011;-74
2023/12/09 02:25:17;;;;;;;37.33;7.60;;;9.00;91.20;;;;;;9174625;19;20110;-75
2023/12/09 02:28:29;;;;;;;34.92;7.70;;;9.00;91.30;;;;;;9174058;19;20022;-75
2023/12/09 02:31:39;;;;;;;33.90;8.65;;;9.00;91.30;;;;;;9174293;19;20011;-73
2023/12/09 02:34:49;;;;;;;36.50;7.75;;;9.00;91.30;;;;;;9175784;19;20348;-77
2023/12/09 02:37:56;;;;;;;40.20;8.68;;;9.00;91.30;;;;;;9175957;19;20017;-78
2023/12/09 02:41:08;;;;;;;30.55;7.70;;;9.00;91.30;;;;;;9173869;19;20502;-75
2023/12/09 02:44:14;;;;;;;28.25;8.32;;;9.00;91.30;;;;;;9175912;19;20077;-76
2023/12/09 02:47:22;;;;;;;29.60;8.20;;;9.00;91.20;;;;;;9173650;19;20007;-76
2023/12/09 02:50:30;;;;;;;38.92;7.57;;;8.90;91.20;;;;;;9179176;19;20018;-77
2023/12/09 02:53:37;;;;;;;24.17;6.82;;;9.00;91.30;;;;;;9184489;19;20022;-78
2023/12/09 02:56:45;;;;;;;25.23;7.00;;;9.00;91.20;;;;;;9179521;19;20375;-75
2023/12/09 02:59:53;;;;;;;36.90;8.00;;;9.00;91.20;;;;;;9183018;19;20022;-76
2023/12/09 03:02:58;;;;;;;39.85;9.23;;;8.90;91.20;;;;;;9182940;19;20052;-76
2023/12/09 03:06:07;;;;;;;33.67;7.85;;;8.90;91.20;;;;;;9182618;19;20026;-76
2023/12/09 03:09:12;;;;;;;29.83;7.97;;;8.90;91.20;;;;;;9183043;19;20622;-77
2023/12/09 03:12:23;;;;;;;36.80;8.57;;;8.90;91.20;;;;;;9181957;19;20022;-77
2023/12/09 03:15:29;;;;;;;36.80;8.77;;;8.90;91.30;;;;;;9183460;19;20022;-77
2023/12/09 03:18:39;;;;;;;33.83;7.97;;;8.90;91.20;;;;;;9183499;19;20026;-76
2023/12/09 03:21:46;;;;;;;34.22;9.05;;;8.90;91.20;;;;;;9179932;19;20014;-78
2023/12/09 03:24:54;;;;;;;34.92;7.45;;;8.90;91.20;;;;;;9183047;19;20025;-76
2023/12/09 03:28:02;;;;;;;39.72;7.82;;;8.90;91.20;;;;;;9183512;19;20420;-77
2023/12/09 03:31:09;;;;;;;40.10;7.97;;;8.90;91.20;;;;;;9182945;19;20010;-77
2023/12/09 03:34:15;;;;;;;31.58;7.88;;;8.90;91.20;;;;;;9181274;19;20014;-78
2023/12/09 03:37:23;;;;;;;25.67;7.68;;;8.90;91.20;;;;;;9181396;19;20014;-78
2023/12/09 03:40:29;;;;;;;29.55;8.13;;;8.90;91.20;;;;;;9182311;19;20144;-78
2023/12/09 03:43:39;;;;;;;41.35;8.05;;;8.80;91.30;;;;;;9182260;19;20022;-73
2023/12/09 03:46:45;;;;;;;33.78;8.52;;;8.80;91.20;;;;;;9179830;19;20029;-76
2023/12/09 03:49:52;;;;;;;22.05;7.57;;;8.80;91.20;;;;;;9181157;19;20025;-75
2023/12/09 03:52:58;;;;;;;27.25;7.60;;;8.80;91.10;;;;;;9177827;19;20010;-72
2023/12/09 03:56:06;;;;;;;35.58;8.68;;;8.80;91.10;;;;;;9180118;19;20038;-73
2023/12/09 03:59:15;;;;;;;31.25;7.55;;;8.80;91.10;;;;;;9177236;19;20014;-73
2023/12/09 04:02:22;;;;;;;36.05;8.23;;;8.80;91.20;;;;;;9179006;19;20025;-73
2023/12/09 04:05:28;;;;;;;33.88;7.45;;;8.80;91.20;;;;;;9180119;19;20020;-73
2023/12/09 04:08:36;;;;;;;23.98;7.68;;;8.80;91.20;;;;;;9178954;19;20368;-74
2023/12/09 04:11:41;;;;;;;29.05;7.20;;;8.80;91.20;;;;;;9180079;19;20357;-73
2023/12/09 04:14:51;;;;;;;21.52;6.97;;;8.80;91.20;;;;;;9180232;19;20007;-74
2023/12/09 04:17:57;;;;;;;31.25;7.28;;;8.80;91.20;;;;;;9179974;19;20082;-73
2023/12/09 04:21:06;;;;;;;25.90;6.90;;;8.80;91.20;;;;;;9176229;19;20030;-74
2023/12/09 04:24:11;;;;;;;32.33;7.15;;;8.80;91.20;;;;;;9179962;19;20010;-74
2023/12/09 04:27:19;;;;;;;31.42;7.78;;;8.80;91.20;;;;;;9179039;19;20377;-73
2023/12/09 04:30:28;;;;;;;28.80;7.78;;;8.80;91.20;;;;;;9179236;19;20018;-73
2023/12/09 04:33:36;;;;;;;30.27;6.80;;;8.80;91.20;;;;;;9177918;19;20018;-73
2023/12/09 04:36:41;;;;;;;35.75;7.63;;;8.80;91.10;;;;;;9179997;19;20471;-73
2023/12/09 04:39:49;;;;;;;29.17;7.03;;;8.80;91.20;;;;;;9178872;19;20499;-74
2023/12/09 04:42:54;;;;;;;18.67;5.75;;;8.80;91.10;;;;;;9176957;19;20015;-73
2023/12/09 04:46:05;;;;;;;24.52;6.97;;;8.80;91.40;;;;;;9178115;19;20022;-73
2023/12/09 04:49:11;;;;;;;25.58;6.03;;;8.80;91.10;;;;;;9175729;19;20006;-73
2023/12/09 04:52:18;;;;;;;26.77;5.40;;;8.80;91.20;;;;;;9175001;19;20025;-73
2023/12/09 04:55:24;;;;;;;32.95;5.72;;;8.70;91.10;;;;;;9180835;19;20022;-75
2023/12/09 04:58:32;;;;;;;32.63;6.40;;;8.70;91.10;;;;;;9176137;19;20354;-76
2023/12/09 05:01:40;;;;;;;37.30;6.13;;;8.70;91.10;;;;;;9178726;19;20758;-77
2023/12/09 05:04:47;;;;;;;29.00;5.45;;;8.70;91.10;;;;;;9176715;19;20027;-77
2023/12/09 05:07:52;;;;;;;27.05;5.20;;;8.70;91.10;;;;;;9177166;19;20015;-76
2023/12/09 05:11:00;;;;;;;25.25;5.05;;;8.70;91.10;;;;;;9179067;19;20018;-77
2023/12/09 05:14:06;;;;;;;22.35;4.85;;;8.70;91.10;;;;;;9179223;19;20493;-76
2023/12/09 05:17:17;;;;;;;24.58;4.70;;;8.70;91.10;;;;;;9177826;19;20018;-76
2023/12/09 05:20:22;;;;;;;23.42;4.85;;;8.70;91.10;;;;;;9177065;19;20553;-76
2023/12/09 05:23:30;;;;;;;28.50;4.68;;;8.60;91.00;;;;;;9178202;19;20018;-75
2023/12/09 05:26:36;;;;;;;21.80;5.30;;;8.60;91.00;;;;;;9177622;19;20015;-76
2023/12/09 05:29:43;;;;;;;19.55;3.83;;;8.60;91.00;;;;;;9178568;19;20476;-76
2023/12/09 05:32:56;;;;;;;29.13;5.00;;;8.60;91.00;;;;;;9176843;19;20007;-76
2023/12/09 05:36:07;;;;;;;17.50;3.80;;;8.50;91.00;;;;;;9178646;19;20019;-77
2023/12/09 05:39:18;;;;;;;16.33;4.13;;;8.50;91.40;;;;;;9176288;19;20021;-76
2023/12/09 05:42:25;;;;;;;19.45;3.97;;;8.40;91.00;;;;;;9176590;19;20022;-76
2023/12/09 05:45:32;;;;;;;29.15;5.65;;;8.50;91.00;;;;;;9178271;19;20057;-76
2023/12/09 05:48:42;;;;;;;22.77;4.88;;;8.40;91.00;;;;;;9175451;19;20015;-76
2023/12/09 05:51:47;;;;;;;29.08;3.97;;;8.40;90.90;;;;;;9175591;19;20031;-76
2023/12/09 05:54:55;;;;;;;19.85;3.95;;;8.30;90.90;;;;;;9177760;19;20018;-76
2023/12/09 05:58:01;;;;;;;20.27;4.13;;;8.30;90.90;;;;;;9173521;19;20882;-76
2023/12/09 06:01:10;;;;;;;13.90;4.03;;;8.30;91.00;;;;;;9176149;19;20014;-76
2023/12/09 06:04:18;;;;;;;25.25;5.15;;;8.30;91.20;;;;;;9177114;19;20022;-76
2023/12/09 06:07:25;;;;;;;21.63;4.65;;;8.30;91.00;;;;;;9175988;19;20481;-77
2023/12/09 06:10:31;;;;;;;21.30;4.55;;;8.20;91.00;;;;;;9174079;19;20510;-76
2023/12/09 06:13:38;;;;;;;18.40;3.75;;;8.20;91.00;;;;;;9174114;19;20360;-76
2023/12/09 06:16:44;;;;;;;19.15;4.15;;;8.20;91.00;;;;;;9174161;19;20464;-75
2023/12/09 06:19:54;;;;;;;19.20;4.90;;;8.20;91.00;;;;;;9174419;19;20267;-75
2023/12/09 06:22:59;;;;;;;13.30;4.45;;;8.30;91.00;;;;;;9173512;19;20007;-76
2023/12/09 06:26:07;;;;;;;18.63;5.30;;;8.20;91.00;;;;;;9173293;19;20022;-76
2023/12/09 06:29:16;;;;;;;23.52;3.63;;;8.20;91.20;;;;;;9176369;19;20030;-77
2023/12/09 06:32:26;;;;;;;23.02;5.03;;;;;;;;;;9176282;19;20442;-77
2023/12/09 06:35:35;;;;;;;20.33;3.75;;;8.20;91.40;;;;;;9174936;19;20022;-76
2023/12/09 06:38:43;;;;;;;16.70;3.17;;;8.20;91.90;;;;;;9176310;19;20480;-78
2023/12/09 06:41:49;;;;;;;24.00;4.15;;;8.00;90.90;;;;;;9175599;19;20021;-77
2023/12/09 06:45:00;;;;;;;16.98;3.53;;;8.00;90.90;;;;;;9175942;19;20018;-76
2023/12/09 06:48:09;;;;;;;18.08;3.28;;;8.00;90.90;;;;;;9175626;19;20468;-77
2023/12/09 06:51:25;;;;;;;16.80;3.58;;;8.00;90.90;;;;;;9170419;19;20021;-77
2023/12/09 06:54:30;;;;;;;12.50;3.38;;;7.90;90.90;;;;;;9176255;19;20548;-75
2023/12/09 06:57:41;;;;;;;20.15;3.47;;;7.90;90.90;;;;;;9168321;19;20022;-76
2023/12/09 07:00:47;;;;;;;15.35;3.95;;;7.80;90.90;;;;;;9172993;19;20022;-77
2023/12/09 07:03:55;;;;;;;20.90;3.83;;;7.90;90.90;;;;;;9171965;19;20022;-75
2023/12/09 07:07:06;;;;;;;13.32;3.00;;;7.90;90.90;;;;;;9173090;19;20021;-76
2023/12/09 07:10:20;;;;;;;23.20;3.38;;;7.80;90.80;;;;;;9173547;19;20026;-77
2023/12/09 07:13:26;;;;;;;23.77;4.20;;;7.80;90.90;;;;;;9172577;19;20027;-76
2023/12/09 07:16:34;;;;;;;28.30;4.18;;;7.70;90.90;;;;;;9179304;19;20017;-77
2023/12/09 07:19:40;;;;;;;18.38;3.05;;;7.70;90.90;;;;;;9179819;19;20011;-76
2023/12/09 07:22:51;;;;;;;10.75;3.13;;;7.70;90.90;;;;;;9178884;19;20018;-78
2023/12/09 07:25:56;;;;;;;17.55;2.67;;;7.70;90.90;;;;;;9177310;19;20441;-76
2023/12/09 07:29:05;;;;;;;22.30;3.00;;;7.70;90.90;;;;;;9179607;19;20014;-78
2023/12/09 07:32:11;;;;;;;12.27;3.97;;;7.60;90.80;;;;;;9172796;19;20373;-76
2023/12/09 07:35:19;;;;;;;12.52;3.30;;;7.60;90.80;;;;;;9174301;19;20137;-77
2023/12/09 07:38:28;;;;;;;21.17;3.53;;;7.60;90.80;;;;;;9180356;19;20014;-78
2023/12/09 07:41:38;;;;;;;14.40;2.90;;;7.50;90.80;;;;;;9187703;19;20014;-77
2023/12/09 07:44:43;;;;;;;17.10;3.70;;;7.50;90.80;;;;;;9189809;19;20475;-77
2023/12/09 07:47:51;;;;;;;23.42;3.10;;;7.50;91.00;;;;;;9190587;19;20010;-76
2023/12/09 07:50:57;;;;;;;20.15;2.95;;;7.50;91.10;;;;;;9188098;19;20034;-77
2023/12/09 07:54:07;;;;;;;17.17;2.60;;;7.50;90.90;;;;;;9180584;19;20491;-75
2023/12/09 07:57:16;;;;;;;10.98;2.58;;;7.40;90.90;;;;;;9176433;19;20508;-76
2023/12/09 08:00:26;;;;;;;19.17;3.95;;;7.50;90.90;;;;;;9178165;19;20014;-78
2023/12/09 08:03:34;;;;;;;22.60;3.35;;;7.40;90.90;;;;;;9176502;19;20019;-77
2023/12/09 08:06:42;;;;;;;19.88;3.20;;;7.50;90.90;;;;;;9178106;19;20042;-78
2023/12/09 08:09:50;;;;;;;18.63;3.53;;;7.50;90.90;;;;;;9178644;19;20441;-76
2023/12/09 08:12:58;;;;;;;22.10;4.13;;;7.50;90.90;;;;;;9184997;19;20019;-77
2023/12/09 08:16:04;;;;;;;17.90;3.80;;;7.50;90.90;;;;;;9186321;19;20020;-76
2023/12/09 08:19:13;;;;;;;17.33;3.15;;;7.50;91.00;;;;;;9186800;19;20022;-76
2023/12/09 08:22:18;;;;;;;19.42;3.38;;;7.50;91.00;;;;;;9184312;19;20025;-77
2023/12/09 08:25:29;;;;;;;19.85;3.00;;;7.50;91.00;;;;;;9186773;19;20021;-78
2023/12/09 08:28:34;;;;;;;22.10;3.17;;;7.50;91.00;;;;;;9187290;19;20508;-77
2023/12/09 08:31:46;;;;;;;19.15;3.90;;;7.50;91.00;;;;;;9187871;19;20014;-77
2023/12/09 08:34:52;;;;;;;20.25;3.88;;;7.50;91.00;;;;;;9186375;19;20019;-78
2023/12/09 08:38:13;;;;;;;23.70;3.45;;;7.50;91.00;;;;;;9185612;19;20020;-78
2023/12/09 08:41:21;;;;;;;15.50;3.28;;;7.60;91.00;;;;;;9185218;19;20022;-77
2023/12/09 08:44:29;;;;;;;20.55;3.88;;;7.60;91.00;;;;;;9182728;19;20611;-77
2023/12/09 08:47:36;;;;;;;11.95;2.53;;;7.60;91.10;;;;;;9186743;19;20007;-79
2023/12/09 08:50:45;;;;;;;20.85;3.40;;;;;;;;;;9182899;19;20024;-75
2023/12/09 08:53:53;;;;;;;19.83;4.35;;;7.60;90.80;;;;;;9187232;19;20504;-77
2023/12/09 08:57:05;;;;;;;22.00;3.50;;;7.80;91.70;;;;;;9182180;19;20026;-78
2023/12/09 09:00:12;;;;;;;23.20;3.80;;;7.60;91.00;;;;;;9186895;19;20011;-78
2023/12/09 09:03:20;;;;;;;15.68;3.47;;;7.70;91.00;;;;;;9186626;19;20048;-78
2023/12/09 09:06:25;;;;;;;17.73;3.47;;;7.70;91.00;;;;;;9185602;19;20023;-79
2023/12/09 09:09:44;;;;;;;16.45;3.80;;;7.70;91.00;;;;;;9184493;19;20014;-77
2023/12/09 09:12:54;;;;;;;13.82;2.83;;;7.80;91.00;;;;;;9185877;19;20018;-78
2023/12/09 09:16:04;;;;;;;22.83;5.75;;;7.80;91.00;;;;;;9185344;19;20541;-78
2023/12/09 09:19:11;;;;;;;13.63;3.67;;;7.80;91.00;;;;;;9185047;19;20119;-76
2023/12/09 09:22:18;;;;;;;17.35;3.28;;;7.90;91.00;;;;;;9184214;19;20010;-78
2023/12/09 09:25:25;;;;;;;12.10;3.40;;;7.90;91.00;;;;;;9183083;19;20078;-77
2023/12/09 09:28:36;;;;;;;19.10;3.15;;;7.90;91.00;;;;;;9183793;19;20019;-78
2023/12/09 09:31:50;;;;;;;14.93;2.97;;;7.90;91.00;;;;;;9181411;19;20464;-77
2023/12/09 09:35:02;;;;;;;14.13;2.53;;;8.00;91.00;;;;;;9180056;19;20021;-76
2023/12/09 09:38:08;;;;;;;16.70;4.47;;;8.00;91.00;;;;;;9176340;19;20033;-77
2023/12/09 09:41:24;;;;;;;13.57;3.20;;;7.90;90.90;;;;;;9178399;19;20024;-76
2023/12/09 09:44:35;;;;;;;9.23;2.50;;;8.10;90.90;;;;;;9176919;19;20106;-76
2023/12/09 09:47:44;;;;;;;12.82;3.10;;;8.10;90.90;;;;;;9175910;19;20022;-76
2023/12/09 09:50:54;;;;;;;13.02;2.72;;;8.10;90.90;;;;;;9177139;19;20078;-75
2023/12/09 09:54:12;;;;;;;10.15;3.33;;;8.20;91.00;;;;;;9177963;19;20018;-75
2023/12/09 09:57:23;;;;;;;18.90;3.80;;;8.20;90.90;;;;;;9174077;19;20517;-77
2023/12/09 10:00:38;;;;;;;15.75;2.70;;;8.20;90.90;;;;;;9173957;19;20510;-76
2023/12/09 10:03:44;;;;;;;9.13;3.40;;;8.30;91.50;;;;;;9177088;19;20019;-77
2023/12/09 10:06:53;;;;;;;11.32;2.72;;;;;;;;;;9170402;19;20018;-76
2023/12/09 10:09:58;;;;;;;14.40;2.33;;;8.40;91.00;;;;;;9175883;19;20018;-76
2023/12/09 10:13:10;;;;;;;16.88;2.38;;;8.40;91.10;;;;;;9176550;19;20114;-75
2023/12/09 10:16:18;;;;;;;11.73;2.72;;;;;;;;;;9175362;19;20067;-76
2023/12/09 10:19:29;;;;;;;13.13;3.10;;;8.50;90.70;;;;;;9173837;19;20532;-76
2023/12/09 10:22:37;;;;;;;14.60;3.25;;;8.50;90.90;;;;;;9175584;19;20028;-77
2023/12/09 10:25:46;;;;;;;14.73;2.65;;;8.50;90.90;;;;;;9175182;19;20027;-76
2023/12/09 10:28:53;;;;;;;9.93;3.10;;;8.50;90.80;;;;;;9177295;19;20015;-77
2023/12/09 10:32:07;;;;;;;16.98;2.38;;;8.60;90.80;;;;;;9175133;19;20014;-76
2023/12/09 10:35:13;;;;;;;11.00;2.50;;;8.60;90.80;;;;;;9169362;19;20014;-76
2023/12/09 10:38:21;;;;;;;14.23;2.67;;;8.60;90.80;;;;;;9171343;19;20014;-76
2023/12/09 10:41:28;;;;;;;8.82;1.85;;;8.70;90.80;;;;;;9169590;19;20010;-76
2023/12/09 10:44:35;;;;;;;10.20;2.47;;;8.70;90.80;;;;;;9167537;19;20025;-74
2023/12/09 10:47:48;;;;;;;13.05;2.50;;;8.70;90.80;;;;;;9166637;19;20024;-74
2023/12/09 10:50:56;;;;;;;10.23;1.88;;;8.80;90.80;;;;;;9168258;19;20024;-74
2023/12/09 10:54:02;;;;;;;14.57;2.28;;;8.80;90.70;;;;;;9171733;19;20123;-75
2023/12/09 10:57:10;;;;;;;11.02;2.13;;;8.80;90.70;;;;;;9169673;19;20019;-73
2023/12/09 11:00:17;;;;;;;7.68;1.50;;;8.80;90.70;;;;;;9169899;19;20244;-73
2023/12/09 11:03:28;;;;;;;16.30;2.50;;;8.90;90.70;;;;;;9173240;19;20015;-72
2023/12/09 11:06:37;;;;;;;9.10;2.38;;;8.90;90.70;;;;;;9172865;19;20033;-74
2023/12/09 11:09:45;;;;;;;8.63;2.30;;;8.90;90.70;;;;;;9175064;19;20022;-75
2023/12/09 11:12:51;;;;;;;9.23;2.42;;;9.00;90.70;;;;;;9181028;19;20070;-73
2023/12/09 11:16:12;;;;;;;16.25;2.55;;;9.00;90.60;;;;;;9183856;19;20033;-76
2023/12/09 11:19:22;;;;;;;7.13;2.13;;;9.10;90.60;;;;;;9183937;19;20022;-73
2023/12/09 11:22:32;;;;;;;20.08;2.35;;;9.10;90.60;;;;;;9183352;19;20014;-76
2023/12/09 11:25:42;;;;;;;11.10;2.30;;;9.10;90.60;;;;;;9179364;19;20022;-76
2023/12/09 11:29:00;;;;;;;12.70;2.08;;;9.10;90.50;;;;;;9182389;19;20355;-73
2023/12/09 11:32:09;;;;;;;8.45;1.95;;;9.20;90.50;;;;;;9182349;19;20531;-73
2023/12/09 11:35:19;;;;;;;10.15;3.03;;;9.20;90.50;;;;;;9182732;19;20263;-74
2023/12/09 11:38:26;;;;;;;15.27;2.22;;;9.20;90.50;;;;;;9182075;19;20010;-75
2023/12/09 11:41:36;;;;;;;11.73;2.25;;;9.20;90.50;;;;;;9183197;19;20014;-74
2023/12/09 11:44:46;;;;;;;6.10;1.90;;;9.30;90.50;;;;;;9182208;19;20738;-75
2023/12/09 11:47:55;;;;;;;12.80;1.90;;;9.30;90.50;;;;;;9182951;19;20018;-76
2023/12/09 11:51:09;;;;;;;11.32;1.80;;;9.30;90.50;;;;;;9180955;19;20014;-74
2023/12/09 11:54:18;;;;;;;10.60;2.00;;;9.40;90.40;;;;;;9183296;19;20019;-76
2023/12/09 11:57:24;;;;;;;8.65;1.70;;;9.40;90.40;;;;;;9182592;19;20028;-77
2023/12/09 12:00:34;;;;;;;9.18;2.40;;;9.40;90.40;;;;;;9183641;19;20352;-76
2023/12/09 12:03:40;;;;;;;9.20;2.13;;;9.40;90.30;;;;;;9185452;19;20006;-77
2023/12/09 12:06:54;;;;;;;6.15;1.88;;;9.50;90.30;;;;;;9181582;19;20014;-78
2023/12/09 12:10:00;;;;;;;12.85;2.25;;;9.50;90.20;;;;;;9181854;19;20018;-78
2023/12/09 12:13:10;;;;;;;12.40;2.00;;;9.40;90.20;;;;;;9181198;19;20061;-77
2023/12/09 12:16:17;;;;;;;14.18;2.22;;;9.40;90.20;;;;;;9184172;19;20048;-77
2023/12/09 12:19:25;;;;;;;13.25;2.30;;;9.50;90.20;;;;;;9181976;19;20112;-78
2023/12/09 12:22:34;;;;;;;16.98;2.65;;;9.50;90.20;;;;;;9180630;19;20018;-78
2023/12/09 12:25:42;;;;;;;12.15;2.10;;;9.50;90.20;;;;;;9181891;19;20015;-75
2023/12/09 12:28:49;;;;;;;14.18;1.85;;;9.50;90.10;;;;;;9182558;19;20018;-77
2023/12/09 12:31:58;;;;;;;10.13;1.70;;;9.50;90.10;;;;;;9181598;19;20078;-77
2023/12/09 12:35:05;;;;;;;12.23;2.38;;;9.50;90.10;;;;;;9181728;19;20054;-75
2023/12/09 12:38:15;;;;;;;11.95;2.20;;;9.50;90.10;;;;;;9181808;19;20045;-76
2023/12/09 12:41:21;;;;;;;7.93;2.10;;;9.50;90.10;;;;;;9180939;19;20018;-76
2023/12/09 12:44:29;;;;;;;12.10;2.72;;;9.50;90.00;;;;;;9181518;19;20011;-78
2023/12/09 12:47:34;;;;;;;10.35;2.50;;;9.60;90.00;;;;;;9179937;19;20006;-77
2023/12/09 12:50:42;;;;;;;10.38;2.08;;;9.60;90.00;;;;;;9182512;19;20018;-77
2023/12/09 12:53:51;;;;;;;8.93;2.60;;;9.60;90.00;;;;;;9181669;19;20340;-77
2023/12/09 12:56:58;;;;;;;11.55;2.40;;;9.60;90.00;;;;;;9177688;19;20495;-76
2023/12/09 13:00:05;;;;;;;7.88;1.80;;;9.60;90.00;;;;;;9181492;19;20066;-75
2023/12/09 13:03:19;;;;;;;11.43;3.13;;;9.60;90.00;;;;;;9180387;19;20029;-77
2023/12/09 13:06:24;;;;;;;11.93;2.20;;;9.60;90.00;;;;;;9178882;19;20010;-77
2023/12/09 13:09:35;;;;;;;9.00;1.95;;;9.60;89.90;;;;;;9181607;19;20502;-76
2023/12/09 13:12:41;;;;;;;11.75;2.05;;;9.60;89.90;;;;;;9180175;19;20015;-77
2023/12/09 13:15:48;;;;;;;15.95;2.65;;;9.70;90.00;;;;;;9178872;19;20019;-72
2023/12/09 13:18:54;;;;;;;12.63;3.40;;;9.70;90.00;;;;;;9178301;19;20495;-74
2023/12/09 13:22:02;;;;;;;8.10;1.80;;;9.70;89.80;;;;;;9178334;19;20046;-71
2023/12/09 13:25:11;;;;;;;9.80;1.85;;;9.70;89.70;;;;;;9178305;19;20368;-75
2023/12/09 13:28:18;;;;;;;15.43;1.92;;;9.70;89.70;;;;;;9178077;19;20021;-75
2023/12/09 13:31:24;;;;;;;10.50;2.65;;;9.70;90.10;;;;;;9175015;19;20029;-72
2023/12/09 13:34:32;;;;;;;11.10;2.28;;;9.70;89.70;;;;;;9175520;19;20022;-75
2023/12/09 13:37:39;;;;;;;8.13;2.00;;;9.70;89.80;;;;;;9176120;19;20044;-75
2023/12/09 13:40:50;;;;;;;7.43;2.00;;;9.70;89.70;;;;;;9176859;19;20015;-73
2023/12/09 13:43:55;;;;;;;11.40;1.83;;;9.70;89.60;;;;;;9177725;19;20402;-74
2023/12/09 13:47:03;;;;;;;10.50;2.35;;;9.70;89.70;;;;;;9175961;19;20030;-73
2023/12/09 13:50:11;;;;;;;9.80;2.20;;;9.70;89.60;;;;;;9175524;19;20017;-73
2023/12/09 13:53:19;;;;;;;6.72;2.67;;;9.70;89.60;;;;;;9177451;19;20025;-74
2023/12/09 13:56:28;;;;;;;11.55;2.47;;;9.70;89.60;;;;;;9176663;19;20018;-74
2023/12/09 13:59:35;;;;;;;14.13;2.85;;;9.70;89.50;;;;;;9176997;19;20499;-73
2023/12/09 14:02:43;;;;;;;8.63;2.00;;;9.70;89.50;;;;;;9176603;19;20038;-74
2023/12/09 14:05:50;;;;;;;6.25;1.73;;;9.70;89.50;;;;;;9176221;19;20021;-74
2023/12/09 14:08:56;;;;;;;11.30;2.58;;;9.70;89.50;;;;;;9176150;19;20014;-74
2023/12/09 14:12:07;;;;;;;12.85;2.40;;;9.70;89.60;;;;;;9175925;19;20014;-74
2023/12/09 14:15:13;;;;;;;7.10;2.17;;;9.70;89.50;;;;;;9172666;19;20011;-75
2023/12/09 14:18:21;;;;;;;12.85;2.70;;;9.60;89.50;;;;;;9174459;19;20019;-76
2023/12/09 14:21:27;;;;;;;12.68;2.53;;;9.70;89.60;;;;;;9175586;19;20360;-74
2023/12/09 14:24:35;;;;;;;13.50;2.25;;;9.60;89.50;;;;;;9175256;19;20025;-75
2023/12/09 14:27:44;;;;;;;11.63;3.97;;;9.60;89.60;;;;;;9169911;19;20018;-75
2023/12/09 14:30:52;;;;;;;8.55;1.83;;;9.60;89.50;;;;;;9174897;19;20018;-74
2023/12/09 14:33:57;;;;;;;7.10;1.77;;;9.60;89.50;;;;;;9173460;19;20014;-72
2023/12/09 14:37:06;;;;;;;9.30;2.10;;;9.60;89.50;;;;;;9172591;19;20700;-75
2023/12/09 14:40:12;;;;;;;12.13;2.38;;;9.50;89.50;;;;;;9175071;19;20021;-73
2023/12/09 14:43:22;;;;;;;11.52;2.63;;;9.50;89.50;;;;;;9174616;19;20602;-72
2023/12/09 14:46:28;;;;;;;17.23;2.55;;;9.50;89.60;;;;;;9177086;19;20073;-73
2023/12/09 14:49:36;;;;;;;11.65;2.03;;;9.50;89.60;;;;;;9182748;19;20025;-73
2023/12/09 14:52:42;;;;;;;12.70;2.38;;;9.40;89.60;;;;;;9180056;19;20018;-74
2023/12/09 14:55:50;;;;;;;9.55;1.88;;;9.40;89.60;;;;;;9183134;19;20396;-72
2023/12/09 14:58:58;;;;;;;8.23;1.63;;;9.40;89.60;;;;;;9179361;19;20015;-71
2023/12/09 15:02:08;;;;;;;14.63;2.42;;;9.40;89.70;;;;;;9183334;19;20018;-73
2023/12/09 15:05:14;;;;;;;9.35;1.98;;;9.30;89.60;;;;;;9181751;19;20018;-73
2023/12/09 15:08:23;;;;;;;12.27;2.05;;;9.30;89.70;;;;;;9179012;19;20381;-72
2023/12/09 15:11:29;;;;;;;8.32;2.13;;;9.20;89.70;;;;;;9182957;19;20010;-71
2023/12/09 15:14:40;;;;;;;10.50;2.47;;;9.20;89.70;;;;;;9184635;19;20020;-71
2023/12/09 15:17:47;;;;;;;10.20;3.00;;;9.20;90.10;;;;;;9183106;19;20019;-72
2023/12/09 15:20:59;;;;;;;5.67;1.73;;;9.10;89.70;;;;;;9181040;19;20395;-71
2023/12/09 15:24:05;;;;;;;18.42;3.85;;;9.10;90.10;;;;;;9181623;19;20018;-71
2023/12/09 15:27:14;;;;;;;13.55;4.93;;;9.10;89.80;;;;;;9180884;19;20030;-73
2023/12/09 15:30:22;;;;;;;8.13;3.00;;;9.00;89.80;;;;;;9181311;19;20010;-72
2023/12/09 15:33:30;;;;;;;7.07;2.45;;;9.00;89.90;;;;;;9182010;19;20025;-75
2023/12/09 15:36:36;;;;;;;19.45;3.22;;;9.00;89.90;;;;;;9180889;19;20025;-75
2023/12/09 15:39:44;;;;;;;12.13;3.15;;;9.00;89.90;;;;;;9182140;19;20014;-75
2023/12/09 15:42:49;;;;;;;12.13;3.88;;;8.90;89.90;;;;;;9181136;19;20077;-75
2023/12/09 15:46:03;;;;;;;19.58;7.15;;;8.90;90.00;;;;;;9182160;19;20026;-74
2023/12/09 15:49:12;;;;;;;12.27;3.28;;;8.90;90.00;;;;;;9181458;19;20587;-75
2023/12/09 15:52:20;;;;;;;27.10;7.03;;;8.90;90.00;;;;;;9180326;19;20029;-77
2023/12/09 15:55:29;;;;;;;6.97;3.42;;;8.80;90.00;;;;;;9180879;19;20020;-76
2023/12/09 15:58:38;;;;;;;8.35;2.80;;;8.80;90.00;;;;;;9172395;19;20349;-76
2023/12/09 16:01:51;;;;;;;7.57;2.67;;;8.80;90.00;;;;;;9181534;19;20021;-76
2023/12/09 16:04:59;;;;;;;62.47;19.88;;;8.80;90.10;;;;;;9180752;19;20425;-74
2023/12/09 16:08:07;;;;;;;19.92;8.35;;;8.80;90.10;;;;;;9178891;19;20014;-75
2023/12/09 16:11:15;;;;;;;10.65;5.35;;;8.80;90.10;;;;;;9181983;19;20033;-76
2023/12/09 16:14:20;;;;;;;10.43;2.78;;;8.70;90.10;;;;;;9181320;19;20007;-76
2023/12/09 16:17:31;;;;;;;7.97;3.25;;;8.70;90.10;;;;;;9180106;19;20029;-74
2023/12/09 16:20:41;;;;;;;14.85;3.13;;;8.70;90.20;;;;;;9178900;19;20022;-75